createdAt,value
2019-02-28T00:01:55.601Z,17.53
2019-02-28T00:04:25.038Z,17.57
2019-02-28T00:06:54.467Z,18.60
2019-02-28T00:09:25.710Z,18.30
2019-02-28T00:11:55.047Z,19.27
2019-02-28T00:14:27.705Z,17.83
2019-02-28T00:16:55.601Z,18.87
2019-02-28T00:19:25.008Z,20.33
2019-02-28T00:21:54.439Z,20.77
2019-02-28T00:24:23.846Z,19.23
2019-02-28T00:26:59.944Z,19.80
2019-02-28T00:29:33.321Z,18.53
2019-02-28T00:32:00.579Z,18.10
2019-02-28T00:34:29.998Z,20.87
2019-02-28T00:36:59.407Z,17.93
2019-02-28T00:39:34.768Z,18.90
2019-02-28T00:42:02.640Z,20.03
2019-02-28T00:44:32.087Z,19.30
2019-02-28T00:47:01.486Z,19.77
2019-02-28T00:49:30.913Z,17.70
2019-02-28T00:52:01.545Z,20.80
2019-02-28T00:54:31.472Z,20.70
2019-02-28T00:57:00.878Z,19.83
2019-02-28T00:59:31.723Z,20.80
2019-02-28T01:02:01.512Z,22.07
2019-02-28T01:04:30.961Z,24.20
2019-02-28T01:07:00.415Z,21.40
2019-02-28T01:09:30.174Z,23.37
2019-02-28T01:12:00.451Z,21.97
2019-02-28T01:14:32.441Z,18.83
2019-02-28T01:17:05.405Z,22.10
2019-02-28T01:19:34.925Z,21.37
2019-02-28T01:22:27.983Z,20.60
2019-02-28T01:24:57.424Z,24.47
2019-02-28T01:27:26.843Z,20.83
2019-02-28T01:29:56.281Z,22.53
2019-02-28T01:32:25.691Z,26.97
2019-02-28T01:34:55.119Z,24.30
2019-02-28T01:37:24.539Z,22.53
2019-02-28T01:39:53.963Z,20.93
2019-02-28T01:42:23.406Z,25.47
2019-02-28T01:44:52.822Z,23.43
2019-02-28T01:47:22.220Z,23.57
2019-02-28T01:49:58.741Z,24.37
2019-02-28T01:52:28.248Z,21.90
2019-02-28T01:54:58.581Z,28.37
2019-02-28T01:57:28.639Z,24.37
2019-02-28T01:59:58.091Z,28.43
2019-02-28T02:02:27.539Z,22.90
2019-02-28T02:04:56.978Z,23.00
2019-02-28T02:07:26.499Z,25.97
2019-02-28T02:09:55.958Z,22.07
2019-02-28T02:12:25.358Z,25.80
2019-02-28T02:14:54.827Z,29.20
2019-02-28T02:17:24.272Z,25.07
2019-02-28T02:19:53.775Z,27.93
2019-02-28T02:22:23.182Z,27.23
2019-02-28T02:24:52.660Z,26.23
2019-02-28T02:27:22.094Z,26.33
2019-02-28T02:29:51.511Z,27.13
2019-02-28T02:32:20.910Z,25.27
2019-02-28T02:34:50.322Z,25.83
2019-02-28T02:37:19.752Z,27.17
2019-02-28T02:39:50.246Z,26.50
2019-02-28T02:42:20.288Z,31.57
2019-02-28T02:44:49.719Z,24.90
2019-02-28T02:47:19.141Z,26.30
2019-02-28T02:49:55.971Z,24.43
2019-02-28T02:52:30.006Z,27.40
2019-02-28T02:54:53.998Z,30.23
2019-02-28T02:57:31.126Z,27.43
2019-02-28T03:00:00.532Z,31.13
2019-02-28T03:02:33.197Z,28.23
2019-02-28T03:05:01.062Z,27.93
2019-02-28T03:07:30.489Z,31.20
2019-02-28T03:09:59.960Z,30.33
2019-02-28T03:12:31.023Z,30.63
2019-02-28T03:15:00.544Z,25.50
2019-02-28T03:17:30.109Z,26.93
2019-02-28T03:19:59.569Z,30.77
2019-02-28T03:22:30.394Z,30.73
2019-02-28T03:24:59.915Z,31.43
2019-02-28T03:27:29.316Z,29.43
2019-02-28T03:29:58.820Z,34.83
2019-02-28T03:32:39.807Z,30.30
2019-02-28T03:34:59.580Z,31.93
2019-02-28T03:37:32.773Z,27.73
2019-02-28T03:40:04.259Z,40.27
2019-02-28T03:42:31.373Z,29.43
2019-02-28T03:45:00.874Z,39.67
2019-02-28T03:47:30.280Z,33.27
2019-02-28T03:49:59.685Z,36.87
2019-02-28T03:52:29.088Z,36.03
2019-02-28T03:55:03.377Z,34.07
2019-02-28T03:57:29.710Z,37.23
2019-02-28T03:59:59.193Z,40.17
2019-02-28T04:02:28.608Z,36.40
2019-02-28T04:04:58.109Z,44.33
2019-02-28T04:07:28.479Z,39.57
2019-02-28T04:09:57.927Z,42.40
2019-02-28T04:12:28.956Z,42.43
2019-02-28T04:14:58.437Z,42.00
2019-02-28T04:17:30.625Z,34.77
2019-02-28T04:20:00.477Z,42.17
2019-02-28T04:22:30.268Z,44.53
2019-02-28T04:24:59.780Z,40.10
2019-02-28T04:27:29.210Z,46.00
2019-02-28T04:30:06.365Z,47.37
2019-02-28T04:32:29.731Z,47.10
2019-02-28T04:34:59.166Z,44.00
2019-02-28T04:37:28.657Z,48.20
2019-02-28T04:39:58.045Z,50.33
2019-02-28T04:42:27.465Z,47.00
2019-02-28T04:44:56.908Z,42.33
2019-02-28T04:47:26.350Z,55.70
2019-02-28T04:49:57.039Z,50.60
2019-02-28T04:52:27.068Z,56.33
2019-02-28T04:54:59.432Z,47.77
2019-02-28T04:57:27.585Z,46.03
2019-02-28T04:59:57.049Z,50.37
2019-02-28T05:02:27.585Z,52.30
2019-02-28T05:08:04.792Z,46.20
2019-02-28T05:10:45.598Z,50.47
2019-02-28T05:13:15.067Z,46.07
2019-02-28T05:15:44.457Z,41.60
2019-02-28T05:18:13.860Z,51.53
2019-02-28T05:20:45.936Z,47.50
2019-02-28T05:23:14.548Z,64.63
2019-02-28T05:25:44.012Z,61.30
2019-02-28T05:28:13.421Z,61.50
2019-02-28T05:30:42.849Z,63.30
2019-02-28T05:33:12.270Z,64.87
2019-02-28T05:35:41.787Z,75.47
2019-02-28T05:38:11.244Z,62.13
2019-02-28T05:40:41.502Z,67.87
2019-02-28T05:43:11.066Z,54.83
2019-02-28T05:45:41.492Z,52.63
2019-02-28T05:48:10.852Z,54.60
2019-02-28T05:50:40.553Z,57.20
2019-02-28T05:53:10.069Z,57.93
2019-02-28T05:55:39.575Z,54.43
2019-02-28T05:58:08.994Z,61.20
2019-02-28T06:00:38.473Z,59.90
2019-02-28T06:03:07.931Z,61.23
2019-02-28T06:05:38.900Z,66.63
2019-02-28T06:08:08.540Z,57.50
2019-02-28T06:10:37.963Z,66.97
2019-02-28T06:13:07.404Z,56.43
2019-02-28T06:15:37.132Z,73.37
2019-02-28T06:18:07.530Z,66.30
2019-02-28T06:20:51.565Z,57.40
2019-02-28T06:23:21.340Z,62.93
2019-02-28T06:25:50.796Z,70.47
2019-02-28T06:28:20.236Z,63.33
2019-02-28T06:30:49.722Z,65.27
2019-02-28T06:33:21.112Z,63.77
2019-02-28T06:35:53.571Z,73.37
2019-02-28T06:38:21.917Z,67.47
2019-02-28T06:40:51.355Z,68.13
2019-02-28T06:43:20.704Z,67.57
2019-02-28T06:45:50.128Z,59.10
2019-02-28T06:48:20.853Z,70.43
2019-02-28T06:50:52.452Z,81.43
2019-02-28T06:53:21.919Z,90.90
2019-02-28T06:55:51.335Z,83.33
2019-02-28T06:58:20.734Z,73.30
2019-02-28T07:00:50.577Z,85.90
2019-02-28T07:03:21.405Z,66.37
2019-02-28T07:05:50.810Z,79.07
2019-02-28T07:08:24.271Z,82.90
2019-02-28T07:10:51.367Z,93.27
2019-02-28T07:13:20.792Z,100.90
2019-02-28T07:15:50.213Z,84.30
2019-02-28T07:18:20.545Z,92.50
2019-02-28T07:20:50.614Z,99.20
2019-02-28T07:23:22.159Z,91.17
2019-02-28T07:25:52.426Z,83.60
2019-02-28T07:28:21.945Z,109.50
2019-02-28T07:30:51.423Z,105.90
2019-02-28T07:33:20.869Z,104.93
2019-02-28T07:35:50.301Z,96.27
2019-02-28T07:38:19.729Z,89.67
2019-02-28T07:40:49.691Z,87.93
2019-02-28T07:43:19.795Z,68.80
2019-02-28T07:45:49.303Z,78.10
2019-02-28T07:48:18.744Z,69.57
2019-02-28T07:50:48.170Z,70.30
2019-02-28T07:53:17.587Z,66.00
2019-02-28T07:55:47.014Z,55.30
2019-02-28T07:58:16.534Z,56.80
2019-02-28T08:00:45.975Z,56.47
2019-02-28T08:03:15.385Z,60.20
2019-02-28T08:05:45.070Z,50.60
2019-02-28T08:08:14.509Z,47.00
2019-02-28T08:10:44.077Z,50.73
2019-02-28T08:13:13.515Z,47.50
2019-02-28T08:15:42.922Z,48.63
2019-02-28T08:18:12.359Z,47.20
2019-02-28T08:20:41.770Z,50.10
2019-02-28T08:23:12.765Z,55.47
2019-02-28T08:25:42.773Z,50.37
2019-02-28T08:28:13.017Z,49.30
2019-02-28T08:30:42.513Z,50.17
2019-02-28T08:33:11.965Z,49.57
2019-02-28T08:35:41.354Z,47.10
2019-02-28T08:38:10.790Z,45.93
2019-02-28T08:40:40.300Z,44.57
2019-02-28T08:43:10.482Z,46.37
2019-02-28T08:45:40.915Z,42.33
2019-02-28T08:48:12.574Z,45.07
2019-02-28T08:50:41.642Z,48.77
2019-02-28T08:53:12.390Z,50.40
2019-02-28T08:55:44.308Z,44.70
2019-02-28T08:58:13.275Z,46.40
2019-02-28T09:00:42.774Z,49.50
2019-02-28T09:03:12.211Z,48.90
2019-02-28T09:05:41.641Z,55.00
2019-02-28T09:08:11.288Z,50.97
2019-02-28T09:10:43.644Z,52.63
2019-02-28T09:13:12.073Z,51.40
2019-02-28T09:15:44.453Z,52.90
2019-02-28T09:18:13.965Z,54.50
2019-02-28T09:20:45.087Z,59.20
2019-02-28T09:23:14.665Z,52.23
2019-02-28T09:25:44.078Z,50.97
2019-02-28T09:28:13.855Z,58.37
2019-02-28T09:30:45.333Z,53.27
2019-02-28T09:33:14.744Z,56.70
2019-02-28T09:35:46.245Z,58.17
2019-02-28T09:38:15.299Z,57.30
2019-02-28T09:40:44.789Z,57.17
2019-02-28T09:43:14.247Z,57.73
2019-02-28T09:45:43.796Z,58.63
2019-02-28T09:48:13.215Z,60.60
2019-02-28T09:50:42.741Z,53.43
2019-02-28T09:53:15.548Z,57.00
2019-02-28T09:55:43.266Z,57.13
2019-02-28T09:58:12.659Z,55.90
2019-02-28T10:00:43.308Z,58.50
2019-02-28T10:03:15.422Z,57.70
2019-02-28T10:05:44.833Z,61.93
2019-02-28T10:08:15.496Z,55.63
2019-02-28T10:10:45.106Z,58.37
2019-02-28T10:13:18.351Z,57.70
2019-02-28T10:15:45.860Z,59.83
2019-02-28T10:18:15.272Z,61.03
2019-02-28T10:20:46.270Z,58.77
2019-02-28T10:23:18.382Z,63.90
2019-02-28T10:25:46.960Z,58.87
2019-02-28T10:28:16.470Z,59.00
2019-02-28T10:30:47.170Z,59.50
2019-02-28T10:33:18.075Z,55.20
2019-02-28T10:35:47.805Z,57.97
2019-02-28T10:38:17.279Z,60.60
2019-02-28T10:40:49.338Z,60.40
2019-02-28T10:43:17.951Z,53.10
2019-02-28T10:45:47.405Z,53.80
2019-02-28T10:48:16.926Z,51.17
2019-02-28T10:50:46.321Z,50.63
2019-02-28T10:53:15.778Z,53.03
2019-02-28T10:55:45.187Z,53.20
2019-02-28T10:58:15.547Z,52.00
2019-02-28T11:00:46.450Z,53.47
2019-02-28T11:03:17.652Z,50.03
2019-02-28T11:05:47.164Z,52.50
2019-02-28T11:08:19.242Z,53.43
2019-02-28T11:10:49.046Z,57.73
2019-02-28T11:13:20.597Z,52.27
2019-02-28T11:15:50.190Z,56.10
2019-02-28T11:18:19.732Z,53.23
2019-02-28T11:20:49.207Z,57.40
2019-02-28T11:23:18.769Z,57.70
2019-02-28T11:25:48.324Z,58.30
2019-02-28T11:28:17.726Z,53.50
2019-02-28T11:30:47.723Z,60.47
2019-02-28T11:33:18.425Z,61.07
2019-02-28T11:35:48.092Z,56.17
2019-02-28T11:38:21.434Z,59.83
2019-02-28T11:40:57.052Z,61.57
2019-02-28T11:43:20.151Z,66.97
2019-02-28T11:45:49.672Z,64.63
2019-02-28T11:48:21.931Z,64.70
2019-02-28T11:50:51.372Z,66.77
2019-02-28T11:53:20.842Z,69.47
2019-02-28T11:55:53.367Z,66.50
2019-02-28T11:58:24.255Z,69.33
2019-02-28T12:00:53.766Z,62.53
2019-02-28T12:03:23.456Z,69.27
2019-02-28T12:05:52.972Z,67.70
2019-02-28T12:08:23.757Z,71.60
2019-02-28T12:10:53.237Z,69.27
2019-02-28T12:13:22.720Z,69.07
2019-02-28T12:15:52.145Z,72.60
2019-02-28T12:18:21.556Z,67.70
2019-02-28T12:20:51.348Z,75.97
2019-02-28T12:23:23.497Z,76.90
2019-02-28T12:25:52.021Z,75.07
2019-02-28T12:28:21.421Z,68.97
2019-02-28T12:30:50.950Z,74.67
2019-02-28T12:33:23.138Z,66.80
2019-02-28T12:35:51.462Z,74.03
2019-02-28T12:38:20.952Z,71.20
2019-02-28T12:40:50.377Z,64.43
2019-02-28T12:43:19.817Z,66.03
2019-02-28T12:45:49.234Z,62.67
2019-02-28T12:48:18.739Z,57.40
2019-02-28T12:50:48.240Z,56.30
2019-02-28T12:53:17.688Z,53.57
2019-02-28T12:55:47.120Z,56.27
2019-02-28T12:58:16.652Z,49.50
2019-02-28T13:00:47.117Z,55.37
2019-02-28T13:03:20.300Z,52.23
2019-02-28T13:05:49.369Z,54.53
2019-02-28T13:08:18.780Z,60.27
2019-02-28T13:10:49.551Z,67.03
2019-02-28T13:13:21.670Z,67.03
2019-02-28T13:15:50.234Z,75.30
2019-02-28T13:18:19.771Z,75.57
2019-02-28T13:20:49.310Z,85.87
2019-02-28T13:23:18.750Z,73.30
2019-02-28T13:25:48.241Z,83.57
2019-02-28T13:28:21.736Z,78.27
2019-02-28T13:30:51.577Z,79.13
2019-02-28T13:33:20.233Z,78.93
2019-02-28T13:35:49.681Z,79.93
2019-02-28T13:38:19.816Z,78.80
2019-02-28T13:40:49.570Z,80.53
2019-02-28T13:43:21.262Z,74.57
2019-02-28T13:45:50.943Z,77.20
2019-02-28T13:48:26.195Z,78.63
2019-02-28T13:50:52.510Z,76.70
2019-02-28T13:53:23.421Z,80.80
2019-02-28T13:55:57.786Z,77.97
2019-02-28T13:58:25.856Z,79.50
2019-02-28T14:00:55.280Z,82.87
2019-02-28T14:03:24.724Z,78.63
2019-02-28T14:05:54.246Z,76.17
2019-02-28T14:08:23.766Z,71.50
2019-02-28T14:10:53.370Z,63.87
2019-02-28T14:13:22.822Z,65.97
2019-02-28T14:15:53.078Z,67.57
2019-02-28T14:18:22.696Z,61.80
2019-02-28T14:20:52.124Z,62.60
2019-02-28T14:23:21.754Z,60.20
2019-02-28T14:25:51.468Z,65.40
2019-02-28T14:28:21.136Z,64.40
2019-02-28T14:30:50.651Z,59.80
2019-02-28T14:33:20.789Z,63.93
2019-02-28T14:35:50.537Z,63.37
2019-02-28T14:38:20.015Z,51.73
2019-02-28T14:40:52.824Z,60.43
2019-02-28T14:43:23.809Z,61.63
2019-02-28T14:45:53.352Z,61.63
2019-02-28T14:48:22.953Z,56.27
2019-02-28T14:50:53.936Z,54.30
2019-02-28T14:53:23.732Z,59.43
2019-02-28T14:55:53.650Z,56.60
2019-02-28T14:58:23.235Z,58.40
2019-02-28T15:00:52.856Z,56.27
2019-02-28T15:03:22.771Z,51.63
2019-02-28T15:05:55.565Z,52.07
2019-02-28T15:08:23.701Z,48.37
2019-02-28T15:10:53.768Z,49.33
2019-02-28T15:13:25.644Z,48.50
2019-02-28T15:15:56.954Z,46.33
2019-02-28T15:18:26.674Z,44.43
2019-02-28T15:20:57.175Z,47.77
2019-02-28T15:23:26.621Z,45.60
2019-02-28T15:25:58.733Z,47.20
2019-02-28T15:28:28.172Z,41.77
2019-02-28T15:30:57.666Z,40.73
2019-02-28T15:33:30.540Z,40.33
2019-02-28T15:35:59.002Z,36.30
2019-02-28T15:38:28.481Z,35.00
2019-02-28T15:40:58.852Z,41.20
2019-02-28T15:43:29.768Z,38.93
2019-02-28T15:45:59.245Z,35.90
2019-02-28T15:48:31.420Z,37.20
2019-02-28T15:51:00.003Z,35.40
2019-02-28T15:53:29.430Z,32.60
2019-02-28T15:55:58.983Z,33.43
2019-02-28T15:58:28.377Z,27.10
2019-02-28T16:00:57.874Z,22.40
2019-02-28T16:03:27.265Z,25.70
2019-02-28T16:05:56.718Z,23.77
2019-02-28T16:08:28.314Z,20.87
2019-02-28T16:10:58.570Z,25.87
2019-02-28T16:13:27.996Z,23.20
2019-02-28T16:15:57.458Z,23.57
2019-02-28T16:18:26.904Z,24.03
2019-02-28T16:20:56.325Z,19.43
2019-02-28T16:23:27.537Z,23.87
2019-02-28T16:25:57.022Z,25.90
2019-02-28T16:28:26.468Z,24.57
2019-02-28T16:30:55.876Z,22.83
2019-02-28T16:33:25.523Z,19.23
2019-02-28T16:35:55.005Z,23.03
2019-02-28T16:38:24.441Z,24.67
2019-02-28T16:40:53.851Z,22.03
2019-02-28T16:43:23.248Z,22.90
2019-02-28T16:45:52.772Z,19.60
2019-02-28T16:48:22.415Z,19.87
2019-02-28T16:50:53.453Z,24.43
2019-02-28T16:53:23.801Z,17.40
2019-02-28T16:55:53.300Z,19.90
2019-02-28T16:58:22.901Z,17.60
2019-02-28T17:00:52.531Z,20.40
2019-02-28T17:03:22.067Z,16.60
2019-02-28T17:05:51.499Z,18.47
2019-02-28T17:08:21.015Z,18.13
2019-02-28T17:10:50.433Z,19.53
2019-02-28T17:13:21.703Z,17.53
2019-02-28T17:15:55.851Z,15.30
2019-02-28T17:18:25.396Z,18.93
2019-02-28T17:20:55.019Z,17.60
2019-02-28T17:23:24.463Z,15.20
2019-02-28T17:25:56.545Z,20.83
2019-02-28T17:28:26.557Z,17.77
2019-02-28T17:30:57.637Z,19.97
2019-02-28T17:33:27.075Z,14.37
2019-02-28T17:35:56.575Z,20.30
2019-02-28T17:38:25.994Z,15.20
2019-02-28T17:40:55.400Z,15.30
2019-02-28T17:43:25.258Z,19.33
2019-02-28T17:45:54.778Z,20.70
2019-02-28T17:48:27.346Z,16.90
2019-02-28T17:50:59.993Z,22.27
2019-02-28T17:53:32.573Z,17.73
2019-02-28T17:56:05.171Z,15.80
2019-02-28T17:58:37.748Z,18.00
2019-02-28T18:01:10.396Z,20.83
2019-02-28T18:03:44.961Z,19.70
2019-02-28T18:06:17.283Z,17.27
2019-02-28T18:08:49.862Z,19.10
2019-02-28T18:11:22.430Z,17.73
2019-02-28T18:13:56.051Z,20.27
2019-02-28T18:16:28.671Z,24.17
2019-02-28T18:19:01.239Z,17.07
2019-02-28T18:21:33.783Z,18.07
2019-02-28T18:24:06.401Z,22.27
2019-02-28T18:26:39.513Z,21.17
2019-02-28T18:29:12.130Z,19.10
2019-02-28T18:31:42.012Z,18.93
2019-02-28T18:34:11.545Z,18.37
2019-02-28T18:36:43.440Z,21.20
2019-02-28T18:39:13.782Z,20.77
2019-02-28T18:41:43.267Z,16.00
2019-02-28T18:44:12.747Z,18.07
2019-02-28T18:46:42.148Z,17.33
2019-02-28T18:49:11.606Z,19.43
2019-02-28T18:51:41.046Z,21.03
2019-02-28T18:54:10.461Z,21.87
2019-02-28T18:56:39.905Z,18.23
2019-02-28T18:59:09.309Z,21.93
2019-02-28T19:01:38.726Z,17.90
2019-02-28T19:04:08.190Z,20.07
2019-02-28T19:06:37.627Z,17.30
2019-02-28T19:09:10.571Z,17.73
2019-02-28T19:11:39.998Z,18.97
2019-02-28T19:14:10.813Z,19.03
2019-02-28T19:16:40.256Z,19.30
2019-02-28T19:19:09.683Z,18.80
2019-02-28T19:21:39.194Z,20.13
2019-02-28T19:24:08.627Z,21.80
2019-02-28T19:26:38.079Z,24.40
2019-02-28T19:29:07.521Z,25.37
2019-02-28T19:31:37.026Z,34.10
2019-02-28T19:34:06.434Z,27.40
2019-02-28T19:36:35.883Z,30.73
2019-02-28T19:39:06.736Z,30.13
2019-02-28T19:41:36.629Z,31.50
2019-02-28T19:44:06.161Z,28.90
2019-02-28T19:46:35.581Z,32.80
2019-02-28T19:49:05.078Z,28.53
2019-02-28T19:51:34.549Z,33.10
2019-02-28T19:54:03.961Z,30.47
2019-02-28T19:56:33.419Z,33.13
2019-02-28T19:59:02.860Z,32.30
2019-02-28T20:01:32.296Z,36.70
2019-02-28T20:04:01.770Z,37.53
2019-02-28T20:06:31.182Z,36.47
2019-02-28T20:09:00.682Z,37.23
2019-02-28T20:11:30.117Z,33.20
2019-02-28T20:13:59.521Z,41.83
2019-02-28T20:16:30.427Z,36.43
2019-02-28T20:18:59.837Z,34.67
2019-02-28T20:21:29.289Z,31.50
2019-02-28T20:23:58.842Z,31.00
2019-02-28T20:26:28.259Z,28.63
2019-02-28T20:28:59.288Z,29.70
2019-02-28T20:31:28.740Z,32.50
2019-02-28T20:33:58.135Z,31.50
2019-02-28T20:36:27.610Z,36.97
2019-02-28T20:38:57.047Z,33.17
2019-02-28T20:41:26.471Z,32.23
2019-02-28T20:43:57.840Z,35.10
2019-02-28T20:46:27.262Z,32.30
2019-02-28T20:48:56.718Z,38.60
2019-02-28T20:51:26.143Z,40.37
2019-02-28T20:53:55.641Z,37.60
2019-02-28T20:56:25.091Z,35.67
2019-02-28T20:58:54.518Z,43.33
2019-02-28T21:01:23.954Z,41.17
2019-02-28T21:03:53.389Z,39.03
2019-02-28T21:06:24.094Z,47.57
2019-02-28T21:08:53.652Z,50.13
2019-02-28T21:11:23.110Z,51.40
2019-02-28T21:13:52.548Z,52.63
2019-02-28T21:16:22.007Z,62.00
2019-02-28T21:18:52.639Z,84.63
2019-02-28T21:21:24.713Z,0.00
2019-02-28T21:23:54.141Z,0.00
2019-02-28T21:26:42.921Z,0.00
2019-02-28T21:29:12.319Z,0.00
2019-02-28T21:31:41.777Z,0.00
2019-02-28T21:34:11.179Z,129.40
2019-02-28T21:36:40.632Z,133.93
2019-02-28T21:39:10.051Z,158.30
2019-02-28T21:41:39.502Z,197.83
2019-02-28T21:44:08.934Z,183.57
2019-02-28T21:46:38.349Z,182.97
2019-02-28T21:49:07.844Z,205.80
2019-02-28T21:51:56.643Z,202.13
2019-02-28T21:54:38.931Z,208.70
2019-02-28T21:57:08.379Z,227.40
2019-02-28T21:59:37.829Z,220.40
2019-02-28T22:02:07.235Z,196.70
2019-02-28T22:04:36.657Z,184.53
2019-02-28T22:07:06.104Z,208.33
2019-02-28T22:09:35.542Z,181.90
2019-02-28T22:12:04.981Z,183.20
2019-02-28T22:14:34.414Z,146.33
2019-02-28T22:17:03.835Z,140.87
2019-02-28T22:19:33.394Z,109.00
2019-02-28T22:22:02.835Z,117.93
2019-02-28T22:24:32.257Z,113.67
2019-02-28T22:27:01.660Z,100.50
2019-02-28T22:29:31.069Z,95.30
2019-02-28T22:32:02.100Z,90.73
2019-02-28T22:34:33.185Z,87.43
2019-02-28T22:37:02.603Z,91.57
2019-02-28T22:39:32.114Z,76.87
2019-02-28T22:42:01.558Z,72.10
2019-02-28T22:44:30.970Z,58.83
2019-02-28T22:47:00.376Z,58.63
2019-02-28T22:49:29.775Z,56.93
2019-02-28T22:51:59.183Z,56.50
2019-02-28T22:54:28.623Z,57.50
2019-02-28T22:56:58.091Z,48.93
2019-02-28T22:59:27.488Z,42.00
2019-02-28T23:01:57.016Z,47.07
2019-02-28T23:04:26.435Z,46.03
2019-02-28T23:06:55.870Z,48.07
2019-02-28T23:09:25.351Z,43.07
2019-02-28T23:11:54.811Z,38.67
2019-02-28T23:14:24.285Z,34.33
2019-02-28T23:16:53.720Z,45.60
2019-02-28T23:19:23.125Z,43.67
2019-02-28T23:21:52.845Z,49.53
2019-02-28T23:24:22.242Z,53.83
2019-02-28T23:26:54.836Z,68.40
2019-02-28T23:29:25.786Z,83.77
2019-02-28T23:31:58.337Z,82.00
2019-02-28T23:34:30.956Z,79.57
2019-02-28T23:37:00.383Z,92.57
2019-02-28T23:39:29.792Z,77.20
2019-02-28T23:41:59.229Z,81.33
2019-02-28T23:44:28.701Z,95.20
2019-02-28T23:46:58.127Z,103.43
2019-02-28T23:49:27.546Z,96.13
2019-02-28T23:51:56.964Z,94.30
2019-02-28T23:54:26.392Z,97.77
2019-02-28T23:56:55.865Z,109.00
2019-02-28T23:59:25.308Z,88.17
